createdAt,value
2023-11-08T00:01:08.125Z,9.60
2023-11-08T00:03:34.611Z,9.60
2023-11-08T00:06:01.988Z,9.60
2023-11-08T00:08:29.314Z,9.60
2023-11-08T00:10:55.742Z,9.50
2023-11-08T00:13:22.205Z,9.50
2023-11-08T00:15:48.689Z,9.50
2023-11-08T00:18:15.220Z,9.50
2023-11-08T00:20:41.754Z,9.50
2023-11-08T00:23:08.333Z,9.50
2023-11-08T00:25:34.781Z,9.50
2023-11-08T00:28:01.262Z,9.60
2023-11-08T00:30:27.746Z,9.50
2023-11-08T00:32:54.283Z,9.50
2023-11-08T00:35:20.777Z,9.60
2023-11-08T00:37:47.260Z,9.60
2023-11-08T00:40:13.766Z,9.60
2023-11-08T00:42:40.284Z,9.60
2023-11-08T00:45:06.979Z,9.60
2023-11-08T00:47:33.548Z,9.70
2023-11-08T00:50:00.074Z,9.70
2023-11-08T00:52:26.547Z,9.70
2023-11-08T00:54:53.052Z,9.70
2023-11-08T00:57:19.625Z,9.70
2023-11-08T00:59:46.058Z,9.70
2023-11-08T01:02:12.567Z,9.70
2023-11-08T01:04:39.213Z,9.70
2023-11-08T01:07:05.694Z,9.70
2023-11-08T01:09:32.206Z,9.70
2023-11-08T01:11:58.640Z,9.70
2023-11-08T01:14:25.105Z,9.80
2023-11-08T01:16:51.574Z,9.70
2023-11-08T01:19:18.101Z,9.70
2023-11-08T01:21:44.550Z,9.70
2023-11-08T01:24:11.093Z,9.70
2023-11-08T01:26:37.605Z,9.70
2023-11-08T01:29:04.157Z,9.80
2023-11-08T01:31:30.665Z,9.70
2023-11-08T01:33:57.319Z,9.80
2023-11-08T01:36:23.911Z,9.70
2023-11-08T01:38:50.372Z,9.70
2023-11-08T01:41:16.861Z,9.70
2023-11-08T01:43:43.409Z,9.70
2023-11-08T01:46:09.892Z,9.60
2023-11-08T01:48:36.400Z,9.60
2023-11-08T01:51:02.899Z,9.60
2023-11-08T01:53:29.370Z,9.50
2023-11-08T01:55:55.840Z,9.50
2023-11-08T01:58:22.336Z,9.50
2023-11-08T02:00:48.795Z,9.50
2023-11-08T02:03:15.281Z,9.60
2023-11-08T02:05:41.842Z,9.60
2023-11-08T02:08:08.904Z,9.60
2023-11-08T02:10:35.338Z,9.60
2023-11-08T02:13:01.864Z,9.60
2023-11-08T02:15:28.373Z,9.60
2023-11-08T02:17:54.908Z,9.60
2023-11-08T02:20:21.404Z,9.60
2023-11-08T02:22:47.846Z,9.60
2023-11-08T02:25:14.315Z,9.60
2023-11-08T02:27:40.846Z,9.60
2023-11-08T02:30:07.282Z,9.60
2023-11-08T02:32:33.751Z,9.60
2023-11-08T02:35:00.173Z,9.60
2023-11-08T02:37:26.583Z,9.60
2023-11-08T02:39:53.093Z,9.60
2023-11-08T02:42:19.693Z,9.60
2023-11-08T02:44:46.214Z,9.60
2023-11-08T02:47:12.736Z,9.60
2023-11-08T02:49:39.190Z,9.60
2023-11-08T02:52:05.680Z,9.60
2023-11-08T02:54:32.200Z,9.60
2023-11-08T02:56:58.677Z,9.60
2023-11-08T02:59:25.102Z,9.70
2023-11-08T03:01:51.563Z,9.70
2023-11-08T03:04:18.020Z,9.60
2023-11-08T03:06:44.523Z,9.70
2023-11-08T03:09:11.160Z,9.60
2023-11-08T03:11:37.598Z,9.70
2023-11-08T03:14:04.088Z,9.70
2023-11-08T03:16:30.522Z,9.70
2023-11-08T03:18:57.059Z,9.70
2023-11-08T03:21:23.636Z,9.80
2023-11-08T03:23:50.164Z,9.80
2023-11-08T03:26:16.705Z,9.80
2023-11-08T03:28:43.200Z,9.80
2023-11-08T03:31:09.727Z,9.80
2023-11-08T03:33:36.193Z,9.80
2023-11-08T03:36:02.689Z,9.80
2023-11-08T03:38:31.570Z,9.80
2023-11-08T03:40:58.007Z,9.80
2023-11-08T03:43:24.474Z,9.80
2023-11-08T03:45:50.937Z,9.80
2023-11-08T03:48:17.468Z,9.80
2023-11-08T03:50:43.950Z,9.80
2023-11-08T03:53:10.447Z,9.80
2023-11-08T03:55:36.955Z,9.80
2023-11-08T03:58:03.438Z,9.80
2023-11-08T04:00:29.975Z,9.80
2023-11-08T04:02:56.519Z,9.80
2023-11-08T04:05:23.033Z,9.80
2023-11-08T04:07:49.463Z,9.80
2023-11-08T04:10:16.377Z,9.80
2023-11-08T04:12:42.944Z,9.80
2023-11-08T04:15:09.396Z,9.80
2023-11-08T04:17:35.910Z,9.80
2023-11-08T04:20:02.439Z,9.90
2023-11-08T04:22:28.868Z,9.90
2023-11-08T04:24:55.335Z,9.90
2023-11-08T04:27:21.850Z,9.90
2023-11-08T04:29:48.307Z,9.90
2023-11-08T04:32:14.726Z,9.90
2023-11-08T04:34:41.245Z,9.90
2023-11-08T04:37:07.743Z,9.90
2023-11-08T04:39:34.252Z,9.90
2023-11-08T04:42:00.704Z,9.90
2023-11-08T04:44:27.186Z,9.90
2023-11-08T04:46:53.681Z,9.90
2023-11-08T04:49:20.174Z,9.90
2023-11-08T04:51:46.755Z,9.90
2023-11-08T04:54:13.253Z,9.90
2023-11-08T04:56:39.705Z,9.90
2023-11-08T04:59:06.184Z,9.90
2023-11-08T05:01:32.622Z,9.90
2023-11-08T05:03:59.137Z,9.90
2023-11-08T05:06:25.725Z,9.90
2023-11-08T05:08:52.265Z,9.90
2023-11-08T05:11:18.833Z,9.90
2023-11-08T05:13:45.359Z,9.90
2023-11-08T05:16:11.813Z,9.90
2023-11-08T05:18:38.337Z,9.90
2023-11-08T05:21:04.897Z,9.90
2023-11-08T05:23:31.378Z,9.90
2023-11-08T05:25:57.805Z,9.90
2023-11-08T05:28:24.244Z,9.90
2023-11-08T05:30:50.761Z,9.90
2023-11-08T05:33:17.237Z,9.90
2023-11-08T05:35:43.718Z,9.90
2023-11-08T05:38:10.145Z,9.90
2023-11-08T05:40:36.642Z,10.00
2023-11-08T05:43:03.069Z,9.90
2023-11-08T05:45:29.573Z,10.00
2023-11-08T05:47:56.072Z,9.90
2023-11-08T05:50:22.512Z,10.00
2023-11-08T05:52:49.013Z,9.90
2023-11-08T05:55:15.531Z,9.90
2023-11-08T05:57:42.063Z,9.90
2023-11-08T06:00:08.581Z,10.00
2023-11-08T06:02:35.089Z,9.90
2023-11-08T06:05:01.575Z,9.90
2023-11-08T06:07:28.005Z,9.90
2023-11-08T06:09:54.509Z,9.90
2023-11-08T06:12:20.974Z,9.90
2023-11-08T06:14:47.500Z,10.00
2023-11-08T06:17:14.001Z,9.90
2023-11-08T06:19:40.475Z,10.00
2023-11-08T06:22:06.989Z,10.00
2023-11-08T06:24:33.499Z,10.00
2023-11-08T06:27:00.032Z,10.00
2023-11-08T06:29:26.521Z,10.00
2023-11-08T06:31:52.944Z,10.00
2023-11-08T06:34:19.543Z,10.00
2023-11-08T06:36:46.108Z,10.00
2023-11-08T06:39:12.590Z,10.00
2023-11-08T06:41:39.053Z,10.00
2023-11-08T06:44:05.485Z,10.00
2023-11-08T06:46:31.950Z,10.00
2023-11-08T06:48:58.471Z,10.00
2023-11-08T06:51:25.002Z,10.00
2023-11-08T06:53:51.516Z,10.00
2023-11-08T06:56:17.947Z,10.00
2023-11-08T06:58:44.367Z,10.00
2023-11-08T07:01:12.448Z,10.00
2023-11-08T07:03:39.337Z,10.00
2023-11-08T07:06:05.907Z,10.00
2023-11-08T07:08:32.403Z,10.00
2023-11-08T07:10:58.907Z,10.00
2023-11-08T07:13:25.327Z,10.00
2023-11-08T07:15:51.824Z,10.00
2023-11-08T07:18:18.318Z,10.00
2023-11-08T07:20:44.785Z,10.00
2023-11-08T07:23:11.201Z,10.00
2023-11-08T07:25:37.674Z,9.90
2023-11-08T07:28:04.271Z,9.90
2023-11-08T07:30:30.817Z,9.90
2023-11-08T07:32:57.340Z,9.90
2023-11-08T07:35:23.793Z,9.90
2023-11-08T07:37:50.272Z,9.90
2023-11-08T07:40:16.764Z,9.80
2023-11-08T07:42:43.405Z,9.80
2023-11-08T07:45:09.960Z,9.80
2023-11-08T07:47:36.662Z,9.70
2023-11-08T07:50:03.141Z,9.70
2023-11-08T07:52:29.588Z,9.70
2023-11-08T07:54:56.080Z,9.60
2023-11-08T07:57:22.602Z,9.60
2023-11-08T07:59:49.056Z,9.60
2023-11-08T08:02:15.556Z,9.60
2023-11-08T08:04:42.144Z,9.70
2023-11-08T08:07:08.595Z,9.70
2023-11-08T08:09:35.035Z,9.70
2023-11-08T08:12:01.501Z,9.60
2023-11-08T08:14:27.938Z,9.60
2023-11-08T08:16:54.432Z,9.60
2023-11-08T08:19:21.014Z,9.60
2023-11-08T08:21:47.522Z,9.70
2023-11-08T08:24:14.018Z,9.70
2023-11-08T08:26:40.515Z,9.70
2023-11-08T08:29:06.976Z,9.70
2023-11-08T08:31:33.461Z,9.70
2023-11-08T08:34:00.017Z,9.70
2023-11-08T08:36:26.557Z,9.80
2023-11-08T08:38:53.045Z,9.90
2023-11-08T08:41:19.593Z,10.00
2023-11-08T08:43:46.064Z,10.10
2023-11-08T08:46:12.666Z,10.20
2023-11-08T08:48:39.259Z,10.40
2023-11-08T08:51:05.825Z,10.50
2023-11-08T08:53:32.276Z,10.70
2023-11-08T08:55:58.696Z,10.70
2023-11-08T08:58:25.126Z,10.70
2023-11-08T09:00:51.652Z,10.70
2023-11-08T09:03:18.254Z,10.60
2023-11-08T09:05:44.833Z,10.60
2023-11-08T09:08:11.338Z,10.70
2023-11-08T09:10:37.817Z,10.90
2023-11-08T09:13:04.288Z,11.10
2023-11-08T09:15:30.752Z,11.20
2023-11-08T09:17:57.271Z,11.30
2023-11-08T09:20:23.773Z,11.30
2023-11-08T09:22:50.230Z,11.30
2023-11-08T09:25:16.756Z,11.40
2023-11-08T09:27:43.329Z,11.30
2023-11-08T09:30:09.855Z,11.30
2023-11-08T09:32:36.361Z,11.30
2023-11-08T09:35:03.009Z,11.20
2023-11-08T09:37:29.590Z,11.20
2023-11-08T09:39:56.112Z,11.30
2023-11-08T09:42:22.705Z,11.40
2023-11-08T09:44:49.144Z,11.60
2023-11-08T09:47:15.607Z,11.60
2023-11-08T09:49:42.292Z,11.70
2023-11-08T09:52:08.840Z,11.70
2023-11-08T09:54:35.347Z,11.70
2023-11-08T09:57:01.852Z,11.70
2023-11-08T09:59:28.296Z,11.70
2023-11-08T10:01:54.752Z,11.80
2023-11-08T10:04:26.614Z,11.80
2023-11-08T10:06:55.623Z,11.80
2023-11-08T10:09:22.205Z,11.80
2023-11-08T10:11:48.644Z,11.80
2023-11-08T10:14:15.109Z,11.90
2023-11-08T10:16:41.652Z,12.10
2023-11-08T10:19:37.056Z,12.10
2023-11-08T10:21:54.606Z,12.00
2023-11-08T10:24:21.106Z,12.10
2023-11-08T10:26:48.029Z,12.20
2023-11-08T10:29:14.583Z,12.20
2023-11-08T10:31:41.027Z,12.30
2023-11-08T10:34:07.555Z,12.50
2023-11-08T10:36:34.686Z,12.60
2023-11-08T10:39:01.303Z,12.70
2023-11-08T10:41:27.762Z,12.80
2023-11-08T10:43:54.225Z,12.80
2023-11-08T10:46:20.663Z,12.70
2023-11-08T10:48:47.184Z,12.70
2023-11-08T10:51:13.730Z,12.70
2023-11-08T10:53:40.148Z,12.80
2023-11-08T10:56:06.555Z,12.80
2023-11-08T10:58:32.991Z,12.80
2023-11-08T11:00:59.464Z,12.90
2023-11-08T11:03:26.032Z,13.00
2023-11-08T11:05:52.610Z,13.00
2023-11-08T11:08:19.137Z,13.00
2023-11-08T11:10:45.573Z,12.90
2023-11-08T11:13:12.086Z,12.90
2023-11-08T11:15:38.656Z,12.80
2023-11-08T11:18:05.162Z,12.70
2023-11-08T11:20:31.642Z,12.70
2023-11-08T11:22:58.112Z,12.70
2023-11-08T11:25:24.555Z,12.60
2023-11-08T11:27:51.054Z,12.70
2023-11-08T11:30:17.528Z,12.70
2023-11-08T11:32:44.164Z,12.70
2023-11-08T11:35:10.667Z,12.60
2023-11-08T11:50:48.566Z,12.30
2023-11-08T11:53:14.988Z,12.40
2023-11-08T11:55:41.411Z,12.40
2023-11-08T11:58:07.966Z,12.30
2023-11-08T12:00:34.543Z,12.30
2023-11-08T12:03:01.066Z,12.40
2023-11-08T12:05:27.620Z,12.50
2023-11-08T12:07:54.072Z,12.50
2023-11-08T12:10:20.528Z,12.60
2023-11-08T12:12:47.025Z,12.60
2023-11-08T12:15:13.496Z,12.70
2023-11-08T12:17:40.018Z,12.70
2023-11-08T12:20:06.619Z,12.70
2023-11-08T12:22:33.398Z,12.70
2023-11-08T12:25:00.532Z,12.80
2023-11-08T12:27:27.037Z,12.80
2023-11-08T12:29:53.530Z,12.80
2023-11-08T12:32:19.961Z,12.90
2023-11-08T12:34:46.582Z,12.90
2023-11-08T12:37:13.186Z,12.90
2023-11-08T12:39:39.698Z,12.80
2023-11-08T12:42:06.143Z,12.90
2023-11-08T12:44:32.565Z,12.90
2023-11-08T12:46:59.054Z,12.90
2023-11-08T12:49:25.596Z,12.90
2023-11-08T12:51:52.166Z,12.80
2023-11-08T12:54:18.664Z,12.80
2023-11-08T12:56:45.271Z,12.80
2023-11-08T12:59:11.876Z,12.90
2023-11-08T13:01:38.338Z,12.90
2023-11-08T13:04:04.874Z,12.80
2023-11-08T13:06:31.364Z,12.80
2023-11-08T13:08:57.880Z,12.70
2023-11-08T13:11:24.364Z,12.70
2023-11-08T13:13:50.841Z,12.70
2023-11-08T13:16:17.285Z,12.70
2023-11-08T13:18:43.823Z,12.70
2023-11-08T13:21:10.363Z,12.70
2023-11-08T13:24:01.429Z,12.70
2023-11-08T13:26:23.283Z,12.70
2023-11-08T13:28:49.844Z,12.70
2023-11-08T13:31:16.327Z,12.70
2023-11-08T13:33:42.968Z,12.60
2023-11-08T13:36:09.476Z,12.60
2023-11-08T13:38:37.873Z,12.60
2023-11-08T13:41:04.486Z,12.60
2023-11-08T13:43:30.900Z,12.60
2023-11-08T13:45:57.342Z,12.60
2023-11-08T13:48:23.804Z,12.60
2023-11-08T13:50:50.288Z,12.60
2023-11-08T13:53:16.770Z,12.60
2023-11-08T13:55:43.202Z,12.50
2023-11-08T13:58:18.976Z,12.50
2023-11-08T14:00:55.422Z,12.40
2023-11-08T14:03:21.904Z,12.50
2023-11-08T14:05:48.389Z,12.40
2023-11-08T14:08:14.876Z,12.40
2023-11-08T14:10:41.332Z,12.30
2023-11-08T14:13:07.870Z,12.30
2023-11-08T14:15:34.457Z,12.30
2023-11-08T14:18:01.125Z,12.20
2023-11-08T14:20:27.668Z,12.20
2023-11-08T14:22:54.165Z,12.20
2023-11-08T14:25:20.680Z,12.10
2023-11-08T14:27:47.165Z,12.10
2023-11-08T14:30:13.609Z,12.10
2023-11-08T14:32:40.196Z,12.10
2023-11-08T14:35:06.781Z,12.00
2023-11-08T14:37:33.425Z,12.00
2023-11-08T14:39:59.946Z,12.00
2023-11-08T14:42:26.400Z,12.00
2023-11-08T14:44:52.870Z,11.90
2023-11-08T14:47:19.345Z,11.90
2023-11-08T14:49:45.838Z,11.80
2023-11-08T14:52:12.367Z,11.80
2023-11-08T14:54:38.883Z,11.80
2023-11-08T14:57:05.351Z,11.80
2023-11-08T14:59:31.936Z,11.80
2023-11-08T15:01:58.368Z,11.70
2023-11-08T15:04:24.931Z,11.70
2023-11-08T15:06:51.518Z,11.70
2023-11-08T15:09:52.721Z,11.70
2023-11-08T15:12:04.412Z,11.70
2023-11-08T15:14:30.900Z,11.60
2023-11-08T15:16:57.347Z,11.60
2023-11-08T15:19:25.420Z,11.60
2023-11-08T15:21:53.556Z,11.60
2023-11-08T15:24:20.045Z,11.50
2023-11-08T15:26:46.544Z,11.50
2023-11-08T15:29:13.041Z,11.50
2023-11-08T15:31:39.488Z,11.50
2023-11-08T15:34:06.061Z,11.40
2023-11-08T15:36:32.591Z,11.40
2023-11-08T15:38:59.067Z,11.40
2023-11-08T15:41:25.550Z,11.40
2023-11-08T15:43:52.007Z,11.40
2023-11-08T15:46:18.440Z,11.30
2023-11-08T15:48:45.036Z,11.30
2023-11-08T15:51:11.502Z,11.30
2023-11-08T15:53:37.959Z,11.30
2023-11-08T15:56:04.460Z,11.30
2023-11-08T15:58:30.930Z,11.20
2023-11-08T16:00:57.391Z,11.30
2023-11-08T16:03:23.940Z,11.20
2023-11-08T16:05:50.382Z,11.10
2023-11-08T16:08:16.856Z,11.10
2023-11-08T16:10:43.315Z,11.10
2023-11-08T16:13:09.769Z,11.00
2023-11-08T16:15:36.364Z,11.00
2023-11-08T16:18:03.005Z,11.00
2023-11-08T16:20:29.521Z,11.00
2023-11-08T16:22:56.053Z,11.00
2023-11-08T16:25:22.543Z,11.00
2023-11-08T16:27:49.093Z,11.00
2023-11-08T16:30:15.696Z,10.90
2023-11-08T16:32:43.666Z,10.90
2023-11-08T16:35:11.219Z,10.90
2023-11-08T16:37:37.883Z,10.90
2023-11-08T16:40:04.340Z,10.90
2023-11-08T16:42:30.838Z,10.90
2023-11-08T16:44:57.263Z,10.90
2023-11-08T16:47:23.718Z,10.90
2023-11-08T16:49:50.320Z,10.90
2023-11-08T16:52:16.738Z,10.90
2023-11-08T16:54:43.304Z,10.90
2023-11-08T16:57:11.604Z,10.90
2023-11-08T16:59:38.162Z,10.90
2023-11-08T17:02:04.583Z,10.80
2023-11-08T17:04:31.110Z,10.80
2023-11-08T17:06:57.677Z,10.80
2023-11-08T17:09:24.116Z,10.80
2023-11-08T17:11:53.743Z,10.70
2023-11-08T17:14:20.733Z,10.70
2023-11-08T17:16:47.227Z,10.70
2023-11-08T17:19:13.758Z,10.70
2023-11-08T17:21:40.223Z,10.70
2023-11-08T17:24:06.665Z,10.70
2023-11-08T17:26:33.085Z,10.60
2023-11-08T17:28:59.505Z,10.60
2023-11-08T17:31:25.973Z,10.60
2023-11-08T17:33:52.591Z,10.50
2023-11-08T17:36:19.093Z,10.60
2023-11-08T17:38:45.558Z,10.60
2023-11-08T17:41:12.014Z,10.50
2023-11-08T17:43:38.453Z,10.50
2023-11-08T17:46:05.114Z,10.50
2023-11-08T17:48:31.647Z,10.50
2023-11-08T17:50:58.135Z,10.50
2023-11-08T17:53:24.615Z,10.40
2023-11-08T17:55:51.098Z,10.40
2023-11-08T17:58:17.599Z,10.40
2023-11-08T18:00:44.336Z,10.50
2023-11-08T18:03:10.936Z,10.40
2023-11-08T18:05:37.447Z,10.50
2023-11-08T18:08:03.898Z,10.50
2023-11-08T18:10:30.363Z,10.40
2023-11-08T18:12:56.838Z,10.50
2023-11-08T18:15:23.291Z,10.40
2023-11-08T18:17:49.718Z,10.40
2023-11-08T18:20:16.179Z,10.40
2023-11-08T18:22:42.743Z,10.40
2023-11-08T18:25:09.361Z,10.40
2023-11-08T18:27:35.851Z,10.40
2023-11-08T18:30:02.274Z,10.40
2023-11-08T18:32:28.710Z,10.30
2023-11-08T18:34:55.257Z,10.40
2023-11-08T18:37:21.839Z,10.40
2023-11-08T18:39:48.300Z,10.40
2023-11-08T18:42:14.743Z,10.40
2023-11-08T18:44:41.218Z,10.40
2023-11-08T18:47:07.679Z,10.40
2023-11-08T18:49:34.346Z,10.40
2023-11-08T18:52:00.862Z,10.40
2023-11-08T18:54:27.356Z,10.40
2023-11-08T18:56:53.772Z,10.40
2023-11-08T18:59:20.273Z,10.40
2023-11-08T19:01:46.764Z,10.40
2023-11-08T19:04:13.288Z,10.40
2023-11-08T19:06:39.916Z,10.40
2023-11-08T19:09:06.366Z,10.50
2023-11-08T19:11:32.854Z,10.50
2023-11-08T19:13:59.327Z,10.50
2023-11-08T19:16:25.756Z,10.50
2023-11-08T19:18:52.271Z,10.50
2023-11-08T19:21:18.736Z,10.50
2023-11-08T19:23:45.158Z,10.50
2023-11-08T19:26:11.589Z,10.50
2023-11-08T19:28:38.053Z,10.50
2023-11-08T19:31:04.528Z,10.50
2023-11-08T19:33:31.153Z,10.50
2023-11-08T19:35:57.940Z,10.50
2023-11-08T19:38:24.549Z,10.50
2023-11-08T19:40:50.971Z,10.50
2023-11-08T19:43:17.564Z,10.50
2023-11-08T19:45:43.992Z,10.50
2023-11-08T19:48:10.453Z,10.50
2023-11-08T19:50:36.962Z,10.50
2023-11-08T19:53:03.418Z,10.50
2023-11-08T19:55:29.841Z,10.50
2023-11-08T19:57:56.353Z,10.50
2023-11-08T20:00:22.841Z,10.50
2023-11-08T20:02:49.384Z,10.60
2023-11-08T20:05:16.127Z,10.60
2023-11-08T20:07:42.880Z,10.60
2023-11-08T20:10:09.492Z,10.60
2023-11-08T20:12:35.996Z,10.60
2023-11-08T20:15:02.471Z,10.60
2023-11-08T20:17:28.976Z,10.60
2023-11-08T20:19:55.423Z,10.70
2023-11-08T20:22:21.864Z,10.70
2023-11-08T20:24:48.338Z,10.70
2023-11-08T20:27:14.799Z,10.70
2023-11-08T20:29:41.267Z,10.70
2023-11-08T20:32:07.688Z,10.70
2023-11-08T20:34:34.243Z,10.70
2023-11-08T20:37:00.745Z,10.70
2023-11-08T20:39:27.244Z,10.70
2023-11-08T20:41:53.669Z,10.70
2023-11-08T20:44:20.101Z,10.80
2023-11-08T20:46:46.608Z,10.80
2023-11-08T20:49:13.132Z,10.70
2023-11-08T20:51:39.680Z,10.80
2023-11-08T20:54:06.129Z,10.80
2023-11-08T20:56:32.600Z,10.80
2023-11-08T20:58:59.073Z,10.80
2023-11-08T21:01:25.626Z,10.80
2023-11-08T21:03:52.190Z,10.80
2023-11-08T21:06:18.744Z,10.80
2023-11-08T21:08:45.179Z,10.80
2023-11-08T21:11:11.646Z,10.80
2023-11-08T21:13:38.151Z,10.80
2023-11-08T21:16:04.660Z,10.80
2023-11-08T21:18:31.105Z,10.80
2023-11-08T21:20:57.583Z,10.80
2023-11-08T21:23:24.028Z,10.90
2023-11-08T21:25:50.536Z,10.90
2023-11-08T21:28:17.006Z,10.90
2023-11-08T21:30:43.528Z,10.90
2023-11-08T21:33:09.991Z,10.90
2023-11-08T21:35:36.485Z,10.90
2023-11-08T21:38:02.972Z,11.00
2023-11-08T21:40:29.480Z,11.00
2023-11-08T21:42:55.951Z,11.00
2023-11-08T21:45:22.414Z,11.00
2023-11-08T21:47:48.947Z,11.00
2023-11-08T21:50:15.485Z,11.00
2023-11-08T21:52:41.978Z,11.10
2023-11-08T21:55:08.508Z,11.10
2023-11-08T21:57:34.935Z,11.10
2023-11-08T22:00:01.356Z,11.10
2023-11-08T22:02:27.778Z,11.10
2023-11-08T22:04:54.352Z,11.10
2023-11-08T22:07:20.856Z,11.10
2023-11-08T22:09:47.385Z,11.10
2023-11-08T22:12:13.873Z,11.10
2023-11-08T22:14:40.309Z,11.10
2023-11-08T22:17:06.728Z,11.20
2023-11-08T22:19:33.279Z,11.20
2023-11-08T22:21:59.773Z,11.20
2023-11-08T22:24:26.249Z,11.20
2023-11-08T22:26:52.658Z,11.20
2023-11-08T22:29:19.110Z,11.20
2023-11-08T22:31:45.718Z,11.20
2023-11-08T22:34:12.194Z,11.20
2023-11-08T22:36:38.703Z,11.20
2023-11-08T22:39:05.128Z,11.20
2023-11-08T22:41:31.594Z,11.20
2023-11-08T22:43:58.019Z,11.20
2023-11-08T22:46:24.490Z,11.20
2023-11-08T22:48:51.050Z,11.20
2023-11-08T22:51:17.616Z,11.20
2023-11-08T22:53:44.114Z,11.20
2023-11-08T22:56:10.580Z,11.20
2023-11-08T22:58:36.999Z,11.20
2023-11-08T23:01:03.514Z,11.30
2023-11-08T23:03:30.004Z,11.30
2023-11-08T23:05:56.536Z,11.30
2023-11-08T23:08:23.020Z,11.30
2023-11-08T23:10:49.494Z,11.30
2023-11-08T23:13:15.976Z,11.30
2023-11-08T23:15:42.458Z,11.30
2023-11-08T23:18:09.833Z,11.30
2023-11-08T23:20:36.271Z,11.30
2023-11-08T23:23:02.748Z,11.30
2023-11-08T23:25:29.292Z,11.30
2023-11-08T23:27:55.813Z,11.30
2023-11-08T23:30:22.306Z,11.30
2023-11-08T23:32:48.826Z,11.30
2023-11-08T23:35:15.392Z,11.30
2023-11-08T23:37:41.922Z,11.30
2023-11-08T23:40:08.417Z,11.30
2023-11-08T23:42:34.923Z,11.30
2023-11-08T23:45:01.374Z,11.30
2023-11-08T23:47:27.862Z,11.30
2023-11-08T23:49:54.353Z,11.30
2023-11-08T23:52:20.888Z,11.30
2023-11-08T23:54:47.368Z,11.30
2023-11-08T23:57:13.788Z,11.30
2023-11-08T23:59:40.210Z,11.30
